Time;durP1;ratioP1;P1;durP2;ratioP2;P2;SDS_P1;SDS_P2;PMS_P1;PMS_P2;Temp;Humidity;BMP_temperature;BMP_pressure;BME280_temperature;BME280_humidity;BME280_pressure;Samples;Min_cycle;Max_cycle;Signal;HPM_P1;HPM_P2
2023/06/12 00:01:20;;;;;;;4.90;4.70;;;18.60;99.90;;;;;;5072108;28;20693;-54
2023/06/12 00:03:49;;;;;;;4.87;4.67;;;18.60;99.90;;;;;;5071609;28;20300;-54
2023/06/12 00:06:17;;;;;;;5.33;5.13;;;18.60;99.90;;;;;;5071174;28;20717;-54
2023/06/12 00:08:44;;;;;;;5.47;5.17;;;18.50;99.90;;;;;;5111382;22;20240;-57
2023/06/12 00:11:13;;;;;;;5.13;4.83;;;18.50;99.90;;;;;;5077601;28;20196;-56
2023/06/12 00:13:42;;;;;;;4.90;4.57;;;18.50;99.90;;;;;;5082928;28;20197;-58
2023/06/12 00:16:10;;;;;;;5.93;5.53;;;18.50;99.90;;;;;;5091092;28;20205;-56
2023/06/12 00:18:38;;;;;;;5.07;4.87;;;18.50;99.90;;;;;;5083662;28;20724;-57
2023/06/12 00:21:08;;;;;;;4.53;4.33;;;18.40;99.90;;;;;;5090373;28;20242;-59
2023/06/12 00:23:35;;;;;;;5.87;5.33;;;18.40;99.90;;;;;;5090470;28;20196;-57
2023/06/12 00:26:02;;;;;;;5.43;5.13;;;18.30;99.90;;;;;;5080827;28;20192;-56
2023/06/12 00:28:29;;;;;;;5.00;4.70;;;18.30;99.90;;;;;;5082917;28;20223;-56
2023/06/12 00:30:58;;;;;;;6.37;5.77;;;18.30;99.90;;;;;;5072574;28;20260;-58
2023/06/12 00:33:25;;;;;;;4.07;3.87;;;18.30;99.90;;;;;;5081766;28;20204;-57
2023/06/12 00:35:52;;;;;;;5.57;5.23;;;18.20;99.90;;;;;;5080581;28;20200;-57
2023/06/12 00:38:21;;;;;;;5.23;4.90;;;18.20;99.90;;;;;;5075779;28;20771;-56
2023/06/12 00:40:48;;;;;;;5.23;5.03;;;18.10;99.90;;;;;;5088464;28;20288;-57
2023/06/12 00:43:15;;;;;;;5.03;4.80;;;18.10;99.90;;;;;;5090937;28;20258;-58
2023/06/12 00:45:42;;;;;;;4.80;4.50;;;18.00;99.90;;;;;;5092257;28;20257;-57
2023/06/12 00:48:11;;;;;;;5.77;5.47;;;18.00;99.90;;;;;;5084996;28;20655;-57
2023/06/12 00:50:39;;;;;;;5.77;5.47;;;17.90;99.90;;;;;;5087444;28;20658;-56
2023/06/12 00:53:06;;;;;;;5.40;5.07;;;17.80;99.90;;;;;;5094859;28;20669;-57
2023/06/12 00:55:33;;;;;;;6.57;6.17;;;17.70;99.90;;;;;;5094534;28;20291;-58
2023/06/12 00:58:03;;;;;;;5.13;4.83;;;17.80;99.90;;;;;;5086676;28;20286;-56
2023/06/12 01:00:30;;;;;;;5.40;5.10;;;17.70;99.90;;;;;;5094091;28;20224;-57
2023/06/12 01:03:04;;;;;;;6.60;6.20;;;17.70;99.90;;;;;;5084018;28;20265;-58
2023/06/12 01:05:36;;;;;;;5.80;5.43;;;17.70;99.90;;;;;;5084748;28;20572;-57
2023/06/12 01:08:16;;;;;;;5.77;5.47;;;17.70;99.90;;;;;;5086477;28;20228;-57
2023/06/12 01:10:47;;;;;;;5.87;5.47;;;17.70;99.90;;;;;;5094993;28;20359;-56
2023/06/12 01:13:16;;;;;;;6.67;6.27;;;17.60;99.90;;;;;;5093679;28;20200;-58
2023/06/12 01:15:44;;;;;;;6.80;6.50;;;17.50;99.90;;;;;;5084079;28;20208;-57
2023/06/12 01:18:11;;;;;;;5.87;5.47;;;17.40;99.90;;;;;;5086953;28;20311;-57
2023/06/12 01:20:41;;;;;;;6.47;6.07;;;17.50;99.90;;;;;;5094654;28;20311;-57
2023/06/12 01:23:14;;;;;;;5.53;5.23;;;17.50;99.90;;;;;;5094476;28;20671;-57
2023/06/12 01:26:11;;;;;;;5.83;5.20;;;17.50;99.90;;;;;;5093015;28;20257;-57
2023/06/12 01:29:22;;;;;;;6.00;5.60;;;17.40;99.90;;;;;;5086178;28;20220;-56
2023/06/12 01:32:09;;;;;;;5.80;5.30;;;17.30;99.90;;;;;;5094419;28;20666;-57
2023/06/12 01:34:50;;;;;;;7.00;6.20;;;17.20;99.90;;;;;;5093772;28;20249;-56
2023/06/12 01:37:26;;;;;;;6.13;5.80;;;17.20;99.90;;;;;;5082321;28;20698;-56
2023/06/12 01:39:58;;;;;;;6.03;5.70;;;17.20;99.90;;;;;;5089903;28;20285;-57
2023/06/12 01:42:27;;;;;;;6.37;5.87;;;17.30;99.90;;;;;;5088177;28;20253;-57
2023/06/12 01:44:54;;;;;;;6.13;5.73;;;17.30;99.90;;;;;;5093478;28;20193;-56
2023/06/12 01:47:23;;;;;;;6.13;5.53;;;17.30;99.90;;;;;;5088195;28;20217;-57
2023/06/12 01:49:50;;;;;;;6.73;6.13;;;17.20;99.90;;;;;;5090936;28;20193;-57
2023/06/12 01:52:20;;;;;;;5.80;5.40;;;17.20;99.90;;;;;;5081601;28;20254;-57
2023/06/12 01:54:48;;;;;;;6.13;5.83;;;17.10;99.90;;;;;;5080527;28;20200;-56
2023/06/12 01:57:19;;;;;;;6.20;5.90;;;17.10;99.90;;;;;;5093902;28;20311;-58
2023/06/12 01:59:46;;;;;;;5.80;5.40;;;17.10;99.90;;;;;;5084772;28;20212;-56
2023/06/12 02:02:16;;;;;;;6.17;5.57;;;17.00;99.90;;;;;;5080863;28;20205;-58
2023/06/12 02:04:45;;;;;;;7.90;5.50;;;17.00;99.90;;;;;;5090051;28;20208;-57
2023/06/12 02:07:12;;;;;;;5.97;5.60;;;17.00;99.90;;;;;;5085891;28;20232;-57
2023/06/12 02:09:39;;;;;;;6.87;6.27;;;16.90;99.90;;;;;;5092964;28;20273;-57
2023/06/12 02:12:07;;;;;;;6.30;6.00;;;16.90;99.90;;;;;;5085271;28;20242;-57
2023/06/12 02:14:34;;;;;;;6.47;6.03;;;16.90;99.90;;;;;;5084365;28;20521;-57
2023/06/12 02:17:02;;;;;;;5.77;5.47;;;16.90;99.90;;;;;;5084858;28;20221;-57
2023/06/12 02:19:29;;;;;;;9.77;6.10;;;16.90;99.90;;;;;;5080945;28;20247;-57
2023/06/12 02:21:58;;;;;;;6.13;5.73;;;16.90;99.90;;;;;;5081192;28;20725;-57
2023/06/12 02:24:27;;;;;;;5.70;5.40;;;16.80;99.90;;;;;;5081297;28;20206;-57
2023/06/12 02:26:54;;;;;;;6.13;5.77;;;16.80;99.90;;;;;;5073412;28;20217;-58
2023/06/12 02:29:21;;;;;;;6.03;5.73;;;16.70;99.90;;;;;;5086942;28;20197;-57
2023/06/12 02:31:48;;;;;;;6.40;6.10;;;16.70;99.90;;;;;;5084140;28;20201;-57
2023/06/12 02:34:15;;;;;;;5.40;5.20;;;16.70;99.90;;;;;;5072861;28;20212;-57
2023/06/12 02:36:43;;;;;;;5.70;5.30;;;16.60;99.90;;;;;;5073221;28;20346;-57
2023/06/12 02:39:13;;;;;;;5.90;5.50;;;16.60;99.90;;;;;;5075470;28;20242;-56
2023/06/12 02:41:41;;;;;;;6.40;6.00;;;16.60;99.90;;;;;;5082998;28;20278;-57
2023/06/12 02:44:08;;;;;;;5.67;5.33;;;16.60;99.90;;;;;;5084555;28;20674;-57
2023/06/12 02:46:50;;;;;;;6.23;5.83;;;16.60;99.90;;;;;;5093043;28;20200;-56
2023/06/12 02:49:17;;;;;;;6.13;5.73;;;16.60;99.90;;;;;;5092677;28;20216;-58
2023/06/12 02:51:44;;;;;;;7.37;6.83;;;16.60;99.90;;;;;;5092512;28;20204;-57
2023/06/12 02:54:12;;;;;;;6.70;6.40;;;16.50;99.90;;;;;;5091683;28;20666;-57
2023/06/12 02:56:41;;;;;;;6.70;6.30;;;16.40;99.90;;;;;;5076445;28;20242;-57
2023/06/12 02:59:10;;;;;;;5.90;5.50;;;16.40;99.90;;;;;;5074583;28;20205;-56
2023/06/12 03:01:43;;;;;;;5.70;5.40;;;16.30;99.90;;;;;;5084896;28;20864;-56
2023/06/12 03:04:11;;;;;;;6.27;5.87;;;16.30;99.90;;;;;;5080614;28;20197;-57
2023/06/12 03:06:38;;;;;;;6.17;5.77;;;16.30;99.90;;;;;;5086897;28;20205;-57
2023/06/12 03:09:05;;;;;;;6.67;6.03;;;16.30;99.90;;;;;;5082634;28;20205;-57
2023/06/12 03:11:34;;;;;;;6.80;6.30;;;16.30;99.90;;;;;;5085657;28;20245;-57
2023/06/12 03:14:01;;;;;;;7.23;6.77;;;16.30;99.90;;;;;;5087670;28;20196;-57
2023/06/12 03:16:28;;;;;;;7.20;6.70;;;16.20;99.90;;;;;;5087204;28;20193;-57
2023/06/12 03:18:56;;;;;;;6.27;5.73;;;16.20;99.90;;;;;;5091058;28;20297;-58
2023/06/12 03:21:23;;;;;;;6.13;5.77;;;16.20;99.90;;;;;;5077578;28;20216;-57
2023/06/12 03:23:51;;;;;;;7.30;6.70;;;16.20;99.90;;;;;;5074383;28;20205;-58
2023/06/12 03:26:18;;;;;;;7.37;6.80;;;16.20;99.90;;;;;;5072173;28;20212;-57
2023/06/12 03:28:46;;;;;;;6.00;5.70;;;16.30;99.90;;;;;;5071824;28;20225;-57
2023/06/12 03:31:14;;;;;;;7.40;6.90;;;16.30;99.90;;;;;;5085007;28;20197;-56
2023/06/12 03:33:41;;;;;;;8.80;7.27;;;16.40;99.90;;;;;;5079982;28;20231;-57
2023/06/12 03:36:08;;;;;;;8.00;7.40;;;16.30;99.90;;;;;;5092216;28;20200;-57
2023/06/12 03:38:35;;;;;;;6.47;6.07;;;16.30;99.90;;;;;;5092075;28;20247;-56
2023/06/12 03:41:02;;;;;;;6.97;6.47;;;16.30;99.90;;;;;;5088226;28;20221;-56
2023/06/12 03:43:29;;;;;;;7.13;6.63;;;16.30;99.90;;;;;;5085573;28;20208;-57
2023/06/12 03:45:57;;;;;;;7.03;6.33;;;16.20;99.90;;;;;;5083608;28;20200;-57
2023/06/12 03:48:24;;;;;;;7.17;6.77;;;16.20;99.90;;;;;;5092007;28;20229;-56
2023/06/12 03:50:51;;;;;;;8.17;7.57;;;16.20;99.90;;;;;;5082041;28;20193;-57
2023/06/12 03:53:18;;;;;;;8.73;6.97;;;16.30;99.90;;;;;;5091195;28;20200;-57
2023/06/12 03:55:46;;;;;;;8.30;7.70;;;16.20;99.90;;;;;;5089974;28;20192;-56
2023/06/12 03:58:16;;;;;;;8.07;7.53;;;16.20;99.90;;;;;;5079870;28;20232;-58
2023/06/12 04:00:45;;;;;;;7.13;6.60;;;16.30;99.90;;;;;;5076113;28;20243;-58
2023/06/12 04:03:17;;;;;;;7.47;7.00;;;16.30;99.90;;;;;;5078960;28;20198;-57
2023/06/12 04:05:45;;;;;;;7.90;7.33;;;16.40;99.90;;;;;;5076920;28;20236;-56
2023/06/12 04:08:12;;;;;;;8.23;7.67;;;16.40;99.90;;;;;;5082807;28;20224;-57
2023/06/12 04:10:40;;;;;;;8.80;8.17;;;16.50;99.90;;;;;;5082751;28;20209;-56
2023/06/12 04:13:07;;;;;;;8.23;7.50;;;16.50;99.90;;;;;;5079433;28;20269;-56
2023/06/12 04:15:36;;;;;;;6.97;6.57;;;16.40;99.90;;;;;;5071205;28;20251;-57
2023/06/12 04:18:04;;;;;;;8.07;7.47;;;16.50;99.90;;;;;;5075718;28;20712;-56
2023/06/12 04:20:33;;;;;;;8.57;7.73;;;16.60;99.90;;;;;;5079711;28;20259;-56
2023/06/12 04:23:04;;;;;;;11.97;8.53;;;16.70;99.90;;;;;;5079463;28;20197;-57
2023/06/12 04:25:31;;;;;;;9.47;8.70;;;16.80;99.90;;;;;;5071234;28;20634;-56
2023/06/12 04:27:58;;;;;;;8.20;7.70;;;16.90;99.90;;;;;;5071165;28;20217;-57
2023/06/12 04:30:26;;;;;;;7.50;6.73;;;16.90;99.90;;;;;;5075412;28;20209;-57
2023/06/12 04:32:56;;;;;;;7.37;6.77;;;17.00;99.90;;;;;;5070768;28;20197;-57
2023/06/12 04:35:23;;;;;;;9.03;8.20;;;17.00;99.90;;;;;;5070998;28;20262;-57
2023/06/12 04:37:52;;;;;;;8.80;8.03;;;17.00;99.90;;;;;;5070975;28;20582;-57
2023/06/12 04:40:22;;;;;;;9.20;8.20;;;17.10;99.90;;;;;;5074596;28;20201;-57
2023/06/12 04:42:56;;;;;;;8.43;7.83;;;17.10;99.90;;;;;;5082260;28;20203;-57
2023/06/12 04:45:23;;;;;;;9.70;8.90;;;17.10;99.90;;;;;;5089005;28;20448;-56
2023/06/12 04:47:51;;;;;;;7.93;7.33;;;17.10;99.90;;;;;;5088871;28;20689;-57
2023/06/12 04:50:18;;;;;;;9.30;8.50;;;17.10;99.90;;;;;;5088934;28;20203;-57
2023/06/12 04:52:47;;;;;;;7.83;7.20;;;17.20;99.90;;;;;;5082090;28;20342;-57
2023/06/12 04:55:20;;;;;;;8.93;8.13;;;17.30;99.90;;;;;;5071072;28;20197;-56
2023/06/12 04:57:47;;;;;;;9.20;8.30;;;17.40;99.90;;;;;;5081511;28;20228;-58
2023/06/12 05:00:15;;;;;;;12.33;8.77;;;17.50;99.90;;;;;;5081526;28;20200;-57
2023/06/12 05:02:42;;;;;;;8.70;8.10;;;17.70;99.90;;;;;;5073979;28;20217;-57
2023/06/12 05:05:10;;;;;;;7.67;7.07;;;17.90;99.90;;;;;;5072831;28;20638;-57
2023/06/12 05:07:37;;;;;;;7.67;7.07;;;18.00;99.90;;;;;;5082042;28;20323;-56
2023/06/12 05:10:04;;;;;;;8.27;7.57;;;18.20;99.90;;;;;;5090322;28;20204;-57
2023/06/12 05:12:32;;;;;;;7.87;7.30;;;18.50;99.90;;;;;;5087587;28;20284;-57
2023/06/12 05:15:00;;;;;;;8.80;7.87;;;18.90;99.90;;;;;;5077732;28;20205;-58
2023/06/12 05:17:27;;;;;;;8.90;8.20;;;19.30;99.90;;;;;;5089303;28;20216;-56
2023/06/12 05:19:54;;;;;;;7.67;7.17;;;19.90;99.90;;;;;;5087414;28;20644;-57
2023/06/12 05:22:21;;;;;;;6.63;6.23;;;20.60;99.90;;;;;;5090371;28;20312;-56
2023/06/12 05:24:48;;;;;;;6.40;6.07;;;21.00;99.90;;;;;;5090596;28;20257;-56
2023/06/12 05:27:18;;;;;;;7.77;7.07;;;21.50;99.90;;;;;;5090062;28;20233;-57
2023/06/12 05:29:46;;;;;;;6.87;6.30;;;22.40;99.90;;;;;;5090679;28;20360;-57
2023/06/12 05:32:17;;;;;;;5.93;5.60;;;23.10;99.90;;;;;;5091557;28;20360;-57
2023/06/12 05:34:44;;;;;;;6.77;6.37;;;23.90;99.90;;;;;;5094510;28;20212;-57
2023/06/12 05:37:11;;;;;;;5.87;5.47;;;24.40;99.90;;;;;;5094213;28;20216;-57
2023/06/12 05:39:38;;;;;;;6.50;6.00;;;25.00;99.90;;;;;;5089120;28;20254;-58
2023/06/12 05:42:07;;;;;;;5.47;5.07;;;25.40;99.90;;;;;;5080216;28;20216;-58
2023/06/12 05:44:34;;;;;;;5.97;5.53;;;26.10;99.90;;;;;;5086103;28;20642;-57
2023/06/12 05:47:02;;;;;;;6.43;6.07;;;26.30;99.90;;;;;;5075315;28;20220;-57
2023/06/12 05:49:29;;;;;;;6.90;6.40;;;25.50;99.90;;;;;;5085131;28;20259;-57
2023/06/12 05:51:56;;;;;;;5.10;4.80;;;24.90;99.90;;;;;;5081768;28;20242;-58
2023/06/12 05:54:23;;;;;;;5.60;5.30;;;25.10;99.90;;;;;;5093849;28;20208;-57
2023/06/12 05:56:50;;;;;;;4.83;4.63;;;25.70;99.90;;;;;;5094130;28;20196;-57
2023/06/12 05:59:17;;;;;;;7.63;4.93;;;26.80;99.90;;;;;;5093844;28;20574;-58
2023/06/12 06:01:45;;;;;;;4.63;4.20;;;27.20;99.90;;;;;;5093919;28;20227;-59
2023/06/12 06:04:13;;;;;;;5.10;4.70;;;27.20;99.90;;;;;;5082742;28;20249;-57
2023/06/12 06:06:41;;;;;;;4.87;4.73;;;27.20;99.90;;;;;;5091459;28;20291;-57
2023/06/12 06:09:08;;;;;;;5.30;5.00;;;27.30;99.90;;;;;;5093478;28;20257;-57
2023/06/12 06:11:35;;;;;;;5.13;4.93;;;27.60;99.90;;;;;;5093562;28;20287;-58
2023/06/12 06:14:03;;;;;;;4.38;4.13;;;28.10;99.90;;;;;;5073104;28;20197;-57
2023/06/12 06:16:30;;;;;;;5.43;5.13;;;28.50;99.90;;;;;;5073314;28;20300;-57
2023/06/12 06:18:57;;;;;;;6.07;5.40;;;28.60;99.90;;;;;;5073161;28;20267;-56
2023/06/12 06:21:25;;;;;;;5.25;5.07;;;28.50;99.90;;;;;;5083133;28;20216;-57
2023/06/12 06:23:53;;;;;;;4.82;4.60;;;28.20;99.90;;;;;;5081281;28;20197;-57
2023/06/12 06:26:19;;;;;;;5.60;5.20;;;28.10;99.90;;;;;;5073306;28;20258;-58
2023/06/12 06:28:46;;;;;;;5.25;4.90;;;27.60;99.90;;;;;;5072705;28;20710;-57
2023/06/12 06:31:13;;;;;;;5.95;5.65;;;28.30;99.90;;;;;;5073182;28;20197;-60
2023/06/12 06:33:40;;;;;;;5.15;4.95;;;28.80;99.60;;;;;;5073290;28;20262;-57
2023/06/12 06:36:08;;;;;;;5.30;5.00;;;28.40;99.90;;;;;;5080663;28;20197;-60
2023/06/12 06:38:37;;;;;;;6.15;5.95;;;28.60;99.90;;;;;;5092005;28;20224;-57
2023/06/12 06:41:04;;;;;;;5.20;4.90;;;27.50;99.90;;;;;;5093124;28;20250;-57
2023/06/12 06:43:31;;;;;;;5.35;4.95;;;27.60;99.90;;;;;;5086086;28;20658;-61
2023/06/12 06:45:58;;;;;;;5.28;5.00;;;28.20;99.90;;;;;;5079595;28;20247;-62
2023/06/12 06:48:25;;;;;;;6.03;5.60;;;29.40;99.60;;;;;;5110738;22;20225;-68
2023/06/12 06:50:52;;;;;;;7.65;5.13;;;29.10;99.90;;;;;;5077633;28;20575;-66
2023/06/12 06:53:19;;;;;;;5.70;5.50;;;29.00;99.10;;;;;;5088275;28;20209;-66
2023/06/12 06:55:47;;;;;;;5.70;5.25;;;29.10;99.50;;;;;;5074710;28;20204;-67
2023/06/12 06:58:14;;;;;;;5.80;5.53;;;29.40;98.40;;;;;;5075717;28;20776;-67
2023/06/12 07:00:41;;;;;;;5.38;4.97;;;28.30;99.90;;;;;;5080947;28;20629;-70
2023/06/12 07:03:09;;;;;;;5.05;4.68;;;28.50;99.60;;;;;;5070421;28;20278;-67
2023/06/12 07:05:36;;;;;;;5.30;5.10;;;28.40;99.80;;;;;;5080686;28;20205;-68
2023/06/12 07:08:03;;;;;;;5.63;5.30;;;29.50;98.50;;;;;;5083956;28;20255;-68
2023/06/12 07:10:30;;;;;;;5.07;4.88;;;29.20;97.80;;;;;;5080083;28;20201;-68
2023/06/12 07:12:58;;;;;;;5.75;5.35;;;29.70;96.70;;;;;;5082034;28;20248;-68
2023/06/12 07:15:26;;;;;;;4.97;4.68;;;30.20;96.50;;;;;;5076087;28;20209;-68
2023/06/12 07:17:53;;;;;;;5.40;5.20;;;30.10;97.40;;;;;;5074170;28;20668;-69
2023/06/12 07:20:20;;;;;;;6.90;6.30;;;30.10;96.30;;;;;;5070026;28;20223;-68
2023/06/12 07:22:47;;;;;;;5.90;5.60;;;29.90;96.20;;;;;;5074165;28;20221;-69
2023/06/12 07:25:14;;;;;;;5.40;5.10;;;30.00;96.40;;;;;;5093350;28;20218;-67
2023/06/12 07:27:41;;;;;;;5.70;5.30;;;30.20;95.80;;;;;;5083210;28;20271;-66
2023/06/12 07:30:11;;;;;;;5.05;4.75;;;29.90;97.50;;;;;;5067206;28;20283;-68
2023/06/12 07:32:38;;;;;;;5.90;5.63;;;30.60;95.80;;;;;;5078890;28;20200;-69
2023/06/12 07:35:06;;;;;;;5.70;5.45;;;30.50;96.10;;;;;;5084454;28;20869;-70
2023/06/12 07:37:35;;;;;;;6.10;5.55;;;30.90;96.00;;;;;;5079602;28;20207;-67
2023/06/12 07:40:04;;;;;;;5.88;5.55;;;30.10;95.50;;;;;;5082043;28;20274;-70
2023/06/12 07:42:31;;;;;;;7.85;7.28;;;30.20;96.40;;;;;;5077595;28;20255;-67
2023/06/12 07:44:58;;;;;;;6.10;5.88;;;30.30;95.20;;;;;;5082470;28;20621;-66
2023/06/12 07:47:27;;;;;;;6.22;6.00;;;30.40;96.20;;;;;;5070665;28;20217;-65
2023/06/12 07:49:54;;;;;;;5.40;5.10;;;30.60;96.30;;;;;;5075483;28;20225;-64
2023/06/12 07:52:22;;;;;;;6.22;5.82;;;30.30;96.50;;;;;;5092206;28;20196;-65
2023/06/12 07:54:49;;;;;;;6.32;6.03;;;29.60;97.20;;;;;;5072401;28;20217;-66
2023/06/12 07:57:18;;;;;;;7.00;6.70;;;29.20;98.00;;;;;;5082446;28;20252;-65
2023/06/12 07:59:45;;;;;;;6.72;6.32;;;29.20;97.80;;;;;;5075089;28;20224;-65
2023/06/12 08:02:12;;;;;;;6.72;6.32;;;28.60;99.00;;;;;;5073500;28;20221;-67
2023/06/12 08:04:42;;;;;;;6.65;6.30;;;29.00;98.60;;;;;;5070080;28;20247;-67
2023/06/12 08:07:12;;;;;;;6.80;6.50;;;28.90;99.80;;;;;;5075328;28;20287;-67
2023/06/12 08:09:40;;;;;;;6.90;6.60;;;29.40;99.10;;;;;;5081544;28;20225;-67
2023/06/12 08:12:08;;;;;;;7.05;6.63;;;29.00;98.60;;;;;;5075055;28;20197;-65
2023/06/12 08:14:35;;;;;;;7.10;6.65;;;29.30;99.20;;;;;;5078092;28;20270;-66
2023/06/12 08:17:02;;;;;;;7.00;6.40;;;28.90;99.10;;;;;;5079770;28;20352;-65
2023/06/12 08:19:29;;;;;;;7.28;6.78;;;28.40;99.90;;;;;;5075667;28;20232;-65
2023/06/12 08:21:57;;;;;;;8.30;7.77;;;28.10;99.90;;;;;;5079836;28;20274;-62
2023/06/12 08:24:28;;;;;;;8.47;7.87;;;27.60;99.90;;;;;;5071593;28;20211;-64
2023/06/12 08:26:55;;;;;;;7.10;6.77;;;27.50;99.90;;;;;;5073468;28;20688;-64
2023/06/12 08:29:22;;;;;;;8.23;7.60;;;27.30;99.90;;;;;;5083325;28;20216;-65
2023/06/12 08:31:49;;;;;;;6.57;6.23;;;27.70;99.90;;;;;;5077667;28;20232;-65
2023/06/12 08:34:16;;;;;;;8.27;6.97;;;27.90;99.90;;;;;;5081534;28;20279;-64
2023/06/12 08:36:43;;;;;;;7.20;6.80;;;27.30;99.90;;;;;;5073563;28;20201;-64
2023/06/12 08:39:13;;;;;;;5.97;5.57;;;27.60;99.90;;;;;;5074371;28;20216;-55
2023/06/12 08:41:46;;;;;;;7.60;6.28;;;27.60;99.90;;;;;;5080447;28;20569;-67
2023/06/12 08:44:14;;;;;;;6.43;5.97;;;27.80;99.90;;;;;;5076411;28;20805;-67
2023/06/12 08:46:42;;;;;;;5.60;5.23;;;28.60;99.20;;;;;;5078735;28;20197;-55
2023/06/12 08:49:09;;;;;;;6.05;5.85;;;28.90;98.80;;;;;;5068429;28;20232;-54
2023/06/12 08:51:38;;;;;;;6.77;6.47;;;29.00;98.00;;;;;;5073675;28;20583;-67
2023/06/12 08:54:07;;;;;;;5.80;5.37;;;29.10;98.00;;;;;;5072506;28;20658;-61
2023/06/12 08:56:35;;;;;;;5.30;5.05;;;29.50;98.20;;;;;;5082323;28;20208;-64
2023/06/12 08:59:03;;;;;;;5.25;4.90;;;29.60;97.20;;;;;;5082161;28;20795;-64
2023/06/12 09:01:31;;;;;;;5.95;5.45;;;30.30;97.50;;;;;;5082151;28;20202;-65
2023/06/12 09:04:03;;;;;;;5.97;5.57;;;30.10;95.50;;;;;;5078514;28;20313;-65
2023/06/12 09:06:36;;;;;;;6.00;5.53;;;30.50;96.00;;;;;;5075833;28;20197;-65
2023/06/12 09:09:03;;;;;;;5.80;5.50;;;30.00;95.90;;;;;;5082150;28;20310;-54
2023/06/12 09:11:30;;;;;;;5.50;5.25;;;29.20;97.20;;;;;;5085883;28;20200;-66
2023/06/12 09:14:01;;;;;;;5.47;5.28;;;29.40;97.40;;;;;;5082404;28;20272;-64
2023/06/12 09:16:28;;;;;;;5.72;5.43;;;30.30;97.40;;;;;;5076928;28;20713;-65
2023/06/12 09:18:56;;;;;;;5.68;5.47;;;30.30;96.80;;;;;;5083717;28;20252;-64
2023/06/12 09:21:24;;;;;;;5.93;5.63;;;29.60;96.90;;;;;;5085421;28;20335;-65
2023/06/12 09:23:52;;;;;;;5.82;5.43;;;30.00;97.20;;;;;;5074551;28;20225;-67
2023/06/12 09:26:21;;;;;;;5.15;4.85;;;30.60;95.20;;;;;;5073833;28;20205;-65
2023/06/12 09:28:51;;;;;;;5.85;5.55;;;31.10;94.10;;;;;;5082775;28;20270;-65
2023/06/12 09:31:20;;;;;;;6.03;5.63;;;31.60;96.10;;;;;;5082760;28;20716;-65
2023/06/12 09:33:47;;;;;;;6.40;5.82;;;31.50;96.60;;;;;;5081949;28;20263;-71
2023/06/12 09:36:14;;;;;;;6.35;5.82;;;31.80;94.50;;;;;;5085838;28;20200;-67
2023/06/12 09:38:41;;;;;;;5.97;5.70;;;31.60;96.20;;;;;;5076237;28;20220;-67
2023/06/12 09:41:10;;;;;;;5.90;5.65;;;31.60;97.20;;;;;;5073220;28;20255;-63
2023/06/12 09:43:37;;;;;;;5.65;5.38;;;31.50;96.20;;;;;;5081855;28;20216;-68
2023/06/12 09:46:08;;;;;;;5.45;5.25;;;31.80;95.30;;;;;;5080753;28;20209;-67
2023/06/12 09:48:38;;;;;;;5.90;5.70;;;30.30;94.20;;;;;;5081976;28;20302;-67
2023/06/12 09:51:06;;;;;;;6.32;6.05;;;30.10;96.40;;;;;;5084990;28;20743;-66
2023/06/12 09:53:37;;;;;;;5.70;5.40;;;30.40;95.80;;;;;;5084397;28;20444;-63
2023/06/12 09:56:06;;;;;;;4.93;4.78;;;30.60;94.50;;;;;;5072123;28;20232;-63
2023/06/12 09:58:37;;;;;;;7.00;5.80;;;31.20;93.40;;;;;;5072212;28;20308;-61
2023/06/12 10:01:06;;;;;;;5.32;5.03;;;31.30;94.40;;;;;;5081944;28;20239;-61
2023/06/12 10:03:39;;;;;;;5.22;4.93;;;30.80;93.80;;;;;;5084139;28;20246;-61
2023/06/12 10:06:08;;;;;;;5.18;4.82;;;31.10;95.00;;;;;;5094524;28;20288;-65
2023/06/12 10:08:35;;;;;;;5.78;5.50;;;31.60;93.00;;;;;;5074157;28;20225;-64
2023/06/12 10:11:04;;;;;;;5.85;5.65;;;32.30;95.20;;;;;;5074036;28;20205;-62
2023/06/12 10:13:32;;;;;;;6.47;5.97;;;32.80;93.80;;;;;;5076478;28;20201;-63
2023/06/12 10:16:00;;;;;;;5.10;4.82;;;32.80;92.80;;;;;;5083931;28;20229;-65
2023/06/12 10:18:28;;;;;;;5.05;4.72;;;31.50;93.30;;;;;;5076860;28;20221;-64
2023/06/12 10:20:57;;;;;;;4.93;4.68;;;31.50;94.50;;;;;;5082837;28;20202;-70
2023/06/12 10:23:24;;;;;;;5.15;4.95;;;31.70;93.90;;;;;;5081164;28;20227;-65
2023/06/12 10:25:53;;;;;;;6.05;5.63;;;31.80;92.00;;;;;;5087296;28;20204;-65
2023/06/12 10:28:20;;;;;;;6.05;5.80;;;31.90;92.50;;;;;;5080350;28;20221;-65
2023/06/12 10:31:10;;;;;;;5.15;4.82;;;31.80;93.20;;;;;;5068022;28;20198;-54
2023/06/12 10:33:37;;;;;;;5.28;5.03;;;32.10;95.30;;;;;;5073561;28;20580;-54
2023/06/12 10:36:12;;;;;;;5.30;5.10;;;31.40;93.10;;;;;;5084620;28;20205;-54
2023/06/12 10:38:45;;;;;;;4.97;4.88;;;31.40;93.80;;;;;;5093919;28;20583;-54
2023/06/12 10:41:12;;;;;;;4.57;4.47;;;31.30;93.70;;;;;;5074410;28;20696;-54
2023/06/12 10:43:41;;;;;;;6.78;6.40;;;31.40;92.50;;;;;;5073274;28;20278;-54
2023/06/12 10:46:12;;;;;;;5.32;5.03;;;30.70;95.10;;;;;;5074945;28;20468;-63
2023/06/12 10:48:47;;;;;;;5.90;5.32;;;30.30;94.20;;;;;;5083907;28;20229;-65
2023/06/12 10:51:15;;;;;;;4.65;4.50;;;30.50;95.90;;;;;;5073185;28;20616;-66
2023/06/12 10:53:44;;;;;;;5.30;5.07;;;30.70;93.40;;;;;;5073041;28;20259;-65
2023/06/12 10:56:11;;;;;;;4.72;4.63;;;30.60;93.90;;;;;;5073104;28;20197;-65
2023/06/12 10:58:39;;;;;;;5.32;5.15;;;30.30;95.70;;;;;;5078918;28;20216;-68
2023/06/12 11:01:11;;;;;;;6.63;4.97;;;29.70;93.60;;;;;;5080802;28;20196;-67
2023/06/12 11:03:42;;;;;;;6.10;5.72;;;29.40;93.20;;;;;;5074200;28;20271;-66
2023/06/12 11:06:13;;;;;;;5.07;4.78;;;29.30;96.20;;;;;;5073003;28;20197;-67
2023/06/12 11:08:42;;;;;;;5.10;4.88;;;28.90;95.10;;;;;;5072902;28;20228;-64
2023/06/12 11:11:09;;;;;;;4.43;4.32;;;29.30;96.10;;;;;;5072702;28;20205;-67
2023/06/12 11:13:40;;;;;;;5.30;4.85;;;29.30;96.40;;;;;;5072567;28;20244;-66
2023/06/12 11:16:07;;;;;;;4.80;4.65;;;29.40;93.20;;;;;;5072654;28;20655;-66
2023/06/12 11:18:34;;;;;;;5.65;5.15;;;29.10;94.80;;;;;;5078898;28;20220;-65
2023/06/12 11:21:01;;;;;;;4.28;4.18;;;29.10;94.70;;;;;;5084353;28;20291;-67
2023/06/12 11:23:29;;;;;;;5.53;5.22;;;29.10;95.30;;;;;;5092550;28;20274;-68
2023/06/12 11:25:59;;;;;;;4.40;4.20;;;29.10;92.80;;;;;;5092724;28;20806;-64
2023/06/12 11:28:29;;;;;;;5.85;5.55;;;29.00;94.90;;;;;;5074963;28;20707;-60
2023/06/12 11:30:56;;;;;;;5.28;4.47;;;29.00;94.90;;;;;;5072282;28;20243;-63
2023/06/12 11:33:23;;;;;;;4.90;4.60;;;28.60;93.80;;;;;;5072263;28;20244;-62
2023/06/12 11:35:53;;;;;;;4.85;4.68;;;28.30;95.50;;;;;;5079732;28;20212;-65
2023/06/12 11:38:21;;;;;;;4.55;4.35;;;28.40;96.70;;;;;;5085739;28;20270;-65
2023/06/12 11:40:50;;;;;;;4.93;4.72;;;28.20;96.40;;;;;;5092364;28;20201;-66
2023/06/12 11:43:20;;;;;;;6.15;5.68;;;28.10;97.20;;;;;;5081161;28;20311;-64
2023/06/12 11:45:48;;;;;;;4.60;4.25;;;28.00;96.70;;;;;;5072015;28;20209;-63
2023/06/12 11:48:17;;;;;;;5.43;5.13;;;27.80;96.40;;;;;;5071952;28;20218;-61
2023/06/12 11:50:46;;;;;;;5.05;4.85;;;27.80;96.40;;;;;;5070511;28;20193;-62
2023/06/12 11:53:14;;;;;;;6.10;5.80;;;28.00;97.30;;;;;;5086816;28;20193;-64
2023/06/12 11:55:41;;;;;;;5.90;5.50;;;28.20;97.80;;;;;;5072195;28;20274;-62
2023/06/12 11:58:08;;;;;;;5.22;4.78;;;28.00;98.30;;;;;;5074822;28;20662;-53
2023/06/12 12:00:40;;;;;;;4.93;4.72;;;28.00;97.50;;;;;;5076088;28;20675;-63
2023/06/12 12:03:09;;;;;;;4.97;4.78;;;27.80;98.70;;;;;;5071651;28;20212;-62
2023/06/12 12:05:38;;;;;;;5.07;4.78;;;27.90;96.70;;;;;;5071919;28;20314;-61
2023/06/12 12:08:07;;;;;;;5.88;5.68;;;27.30;97.70;;;;;;5077976;28;20205;-60
2023/06/12 12:10:53;;;;;;;8.77;6.17;;;27.50;97.80;;;;;;5089998;28;20586;-60
2023/06/12 12:13:19;;;;;;;4.85;4.65;;;27.60;99.20;;;;;;5091694;28;20254;-62
2023/06/12 12:15:48;;;;;;;5.05;4.85;;;27.70;97.40;;;;;;5091985;28;20227;-64
2023/06/12 12:18:17;;;;;;;4.75;4.53;;;27.60;98.20;;;;;;5084066;28;20315;-65
2023/06/12 12:20:44;;;;;;;6.15;5.85;;;27.50;97.50;;;;;;5071859;28;20207;-62
2023/06/12 12:23:13;;;;;;;5.05;4.85;;;27.40;98.40;;;;;;5069528;28;20702;-65
2023/06/12 12:25:41;;;;;;;5.55;5.25;;;27.40;98.80;;;;;;5079948;28;20228;-65
2023/06/12 12:28:09;;;;;;;5.03;4.82;;;27.50;97.70;;;;;;5051406;28;20288;-62
2023/06/12 12:30:36;;;;;;;5.07;4.60;;;27.60;99.90;;;;;;5051483;28;20220;-61
2023/06/12 12:33:05;;;;;;;5.70;5.18;;;27.60;98.90;;;;;;5051156;28;20202;-61
2023/06/12 12:35:32;;;;;;;5.40;5.10;;;27.70;97.60;;;;;;5061015;28;20710;-61
2023/06/12 12:37:59;;;;;;;5.32;4.85;;;27.70;98.30;;;;;;5071459;28;20201;-68
2023/06/12 12:40:28;;;;;;;5.35;5.15;;;27.60;99.60;;;;;;5075535;28;20215;-68
2023/06/12 12:42:55;;;;;;;5.47;5.07;;;27.60;96.70;;;;;;5082294;28;20199;-65
2023/06/12 12:45:22;;;;;;;5.70;5.20;;;27.60;97.20;;;;;;5091383;28;20680;-67
2023/06/12 12:47:49;;;;;;;5.45;5.03;;;27.40;99.90;;;;;;5091534;28;20588;-70
2023/06/12 12:50:19;;;;;;;6.45;5.90;;;27.30;97.40;;;;;;5091263;28;20855;-68
2023/06/12 12:52:46;;;;;;;5.75;5.55;;;27.20;98.50;;;;;;5079364;28;20208;-65
2023/06/12 12:55:14;;;;;;;5.72;5.28;;;27.20;98.20;;;;;;5078703;28;20193;-67